createdAt,value
2022-11-20T00:01:15.857Z,88.49
2022-11-20T00:04:17.717Z,88.17
2022-11-20T00:07:19.704Z,88.23
2022-11-20T00:10:21.650Z,88.17
2022-11-20T00:13:23.690Z,88.01
2022-11-20T00:16:28.234Z,87.83
2022-11-20T00:19:30.073Z,87.81
2022-11-20T00:22:31.953Z,87.89
2022-11-20T00:25:36.579Z,87.45
2022-11-20T00:28:38.633Z,87.36
2022-11-20T00:31:40.557Z,87.37
2022-11-20T00:34:42.442Z,87.16
2022-11-20T00:37:44.320Z,87.19
2022-11-20T00:40:48.844Z,86.86
2022-11-20T00:43:55.693Z,86.70
2022-11-20T00:46:57.588Z,86.48
2022-11-20T00:49:59.473Z,86.24
2022-11-20T00:53:01.366Z,86.46
2022-11-20T00:56:05.950Z,86.20
2022-11-20T00:59:10.280Z,86.06
2022-11-20T01:02:12.190Z,86.12
2022-11-20T01:05:14.137Z,85.84
2022-11-20T01:08:16.030Z,85.86
2022-11-20T01:11:21.086Z,85.77
2022-11-20T01:14:23.067Z,85.68
2022-11-20T01:17:24.979Z,85.59
2022-11-20T01:20:26.853Z,85.73
2022-11-20T01:23:32.337Z,85.67
2022-11-20T01:26:36.714Z,85.95
2022-11-20T01:29:38.585Z,85.70
2022-11-20T01:32:40.420Z,85.57
2022-11-20T01:35:42.339Z,85.71
2022-11-20T01:38:44.419Z,85.93
2022-11-20T01:42:09.818Z,85.26
2022-11-20T01:45:50.218Z,85.37
2022-11-20T01:48:58.306Z,85.18
2022-11-20T01:52:04.351Z,85.17
2022-11-20T01:55:15.957Z,85.14
2022-11-20T01:58:23.051Z,85.24
2022-11-20T02:01:25.302Z,85.31
2022-11-20T02:04:27.240Z,84.95
2022-11-20T02:07:29.836Z,84.68
2022-11-20T02:10:33.085Z,84.81
2022-11-20T02:13:44.715Z,84.56
2022-11-20T02:16:48.951Z,84.53
2022-11-20T02:19:51.032Z,84.97
2022-11-20T02:23:13.177Z,84.74
2022-11-20T02:26:17.206Z,84.88
2022-11-20T02:29:27.005Z,84.92
2022-11-20T02:32:32.186Z,84.39
2022-11-20T02:35:33.997Z,84.22
2022-11-20T02:38:35.942Z,84.88
2022-11-20T02:41:38.709Z,84.77
2022-11-20T02:44:40.600Z,84.81
2022-11-20T02:47:42.437Z,84.97
2022-11-20T02:50:44.388Z,84.91
2022-11-20T02:53:46.337Z,84.67
2022-11-20T02:56:48.263Z,84.53
2022-11-20T02:59:50.089Z,84.49
2022-11-20T03:02:51.970Z,84.52
2022-11-20T03:05:53.851Z,84.57
2022-11-20T03:08:55.775Z,84.54
2022-11-20T03:11:57.752Z,84.33
2022-11-20T03:14:59.647Z,84.11
2022-11-20T03:18:01.540Z,83.97
2022-11-20T03:21:03.637Z,84.15
2022-11-20T03:24:05.858Z,84.01
2022-11-20T03:27:07.852Z,84.07
2022-11-20T03:30:10.354Z,83.94
2022-11-20T03:33:12.260Z,84.22
2022-11-20T03:36:16.560Z,83.89
2022-11-20T03:39:18.606Z,83.65
2022-11-20T03:42:38.840Z,83.91
2022-11-20T03:45:40.669Z,83.94
2022-11-20T03:48:45.325Z,83.65
2022-11-20T03:51:49.390Z,83.88
2022-11-20T03:54:51.240Z,83.69
2022-11-20T03:57:53.187Z,83.66
2022-11-20T04:00:55.054Z,83.70
2022-11-20T04:03:58.204Z,83.70
2022-11-20T04:07:00.161Z,83.63
2022-11-20T04:10:02.097Z,83.56
2022-11-20T04:13:03.991Z,83.18
2022-11-20T04:16:07.605Z,82.88
2022-11-20T04:19:15.140Z,83.10
2022-11-20T04:22:17.037Z,83.28
2022-11-20T04:25:18.948Z,83.30
2022-11-20T04:28:21.292Z,83.25
2022-11-20T04:31:29.197Z,83.21
2022-11-20T04:34:31.202Z,83.30
2022-11-20T04:37:33.125Z,83.47
2022-11-20T04:40:34.978Z,83.33
2022-11-20T04:43:36.838Z,83.52
2022-11-20T04:46:43.625Z,83.20
2022-11-20T04:49:45.458Z,83.52
2022-11-20T04:52:47.337Z,83.54
2022-11-20T04:55:49.258Z,83.39
2022-11-20T04:58:51.270Z,83.61
2022-11-20T05:01:53.250Z,83.53
2022-11-20T05:04:55.145Z,83.53
2022-11-20T05:07:58.537Z,83.72
2022-11-20T05:11:02.376Z,83.22
2022-11-20T05:14:04.309Z,83.39
2022-11-20T05:17:06.289Z,83.41
2022-11-20T05:20:08.867Z,83.34
2022-11-20T05:23:10.833Z,83.23
2022-11-20T05:26:22.335Z,83.15
2022-11-20T05:29:24.218Z,83.01
2022-11-20T05:32:26.552Z,83.11
2022-11-20T05:35:28.426Z,83.03
2022-11-20T05:38:30.771Z,83.19
2022-11-20T05:41:34.612Z,83.49
2022-11-20T05:44:36.507Z,83.44
2022-11-20T05:47:38.384Z,83.30
2022-11-20T05:50:40.305Z,83.11
2022-11-20T05:53:48.040Z,83.21
2022-11-20T05:56:50.666Z,83.33
2022-11-20T05:59:52.580Z,83.65
2022-11-20T06:02:54.557Z,83.36
2022-11-20T06:05:56.506Z,83.43
2022-11-20T06:09:00.014Z,83.43
2022-11-20T06:12:01.936Z,83.64
2022-11-20T06:15:05.170Z,83.82
2022-11-20T06:18:07.152Z,84.07
2022-11-20T06:21:11.598Z,83.86
2022-11-20T06:24:13.486Z,84.09
2022-11-20T06:27:15.649Z,83.94
2022-11-20T06:30:17.642Z,84.16
2022-11-20T06:33:19.536Z,84.21
2022-11-20T06:36:23.645Z,84.17
2022-11-20T06:39:25.509Z,84.15
2022-11-20T06:42:27.404Z,84.29
2022-11-20T06:45:29.301Z,84.04
2022-11-20T06:48:31.513Z,84.20
2022-11-20T06:51:33.515Z,84.21
2022-11-20T06:54:35.314Z,83.89
2022-11-20T06:57:37.272Z,83.51
2022-11-20T07:00:39.222Z,83.71
2022-11-20T07:03:41.834Z,83.38
2022-11-20T07:06:43.732Z,83.76
2022-11-20T07:09:45.601Z,83.95
2022-11-20T07:12:51.796Z,83.65
2022-11-20T07:15:53.721Z,83.64
2022-11-20T07:18:55.587Z,83.68
2022-11-20T07:21:57.493Z,83.64
2022-11-20T07:24:59.368Z,83.83
2022-11-20T07:28:02.023Z,83.54
2022-11-20T07:31:05.489Z,83.66
2022-11-20T07:34:07.373Z,83.53
2022-11-20T07:37:10.582Z,83.78
2022-11-20T07:40:16.668Z,83.81
2022-11-20T07:43:18.541Z,83.90
2022-11-20T07:46:20.472Z,83.90
2022-11-20T07:49:22.400Z,83.90
2022-11-20T07:52:24.740Z,84.25
2022-11-20T07:55:26.565Z,84.17
2022-11-20T07:58:30.431Z,84.43
2022-11-20T08:01:32.312Z,84.29
2022-11-20T08:04:34.344Z,84.37
2022-11-20T08:07:38.372Z,84.57
2022-11-20T08:10:40.338Z,84.81
2022-11-20T08:14:00.771Z,84.92
2022-11-20T08:17:02.792Z,85.07
2022-11-20T08:20:05.104Z,85.27
2022-11-20T08:23:08.624Z,85.49
2022-11-20T08:26:10.496Z,85.45
2022-11-20T08:29:12.438Z,85.73
2022-11-20T08:32:14.413Z,85.95
2022-11-20T08:35:16.419Z,86.15
2022-11-20T08:38:18.317Z,86.03
2022-11-20T08:41:27.864Z,86.10
2022-11-20T08:44:30.050Z,86.32
2022-11-20T08:47:32.065Z,86.27
2022-11-20T08:50:34.283Z,86.41
2022-11-20T08:53:36.145Z,86.46
2022-11-20T08:56:38.092Z,86.79
2022-11-20T09:03:02.981Z,86.90
2022-11-20T09:06:07.536Z,86.47
2022-11-20T09:09:09.377Z,86.61
2022-11-20T09:12:11.535Z,86.65
2022-11-20T09:15:13.591Z,86.58
2022-11-20T09:18:15.527Z,86.58
2022-11-20T09:21:17.830Z,86.54
2022-11-20T09:24:20.065Z,86.46
2022-11-20T09:27:22.687Z,86.35
2022-11-20T09:30:24.890Z,86.46
2022-11-20T09:33:27.675Z,86.12
2022-11-20T09:36:30.009Z,86.43
2022-11-20T09:39:31.979Z,86.21
2022-11-20T09:42:51.220Z,86.20
2022-11-20T09:46:05.821Z,86.32
2022-11-20T09:49:07.661Z,86.30
2022-11-20T09:52:33.607Z,85.91
2022-11-20T09:55:37.250Z,85.90
2022-11-20T09:59:03.438Z,85.94
2022-11-20T10:02:16.586Z,85.98
2022-11-20T10:05:28.713Z,86.07
2022-11-20T10:08:41.785Z,85.93
2022-11-20T10:12:18.237Z,85.95
2022-11-20T10:15:40.990Z,86.18
2022-11-20T10:18:59.344Z,86.28
2022-11-20T10:22:23.051Z,86.26
2022-11-20T10:25:45.687Z,86.35
2022-11-20T10:28:59.286Z,86.65
2022-11-20T10:32:19.669Z,87.05
2022-11-20T10:35:27.623Z,87.17
2022-11-20T10:38:50.674Z,87.18
2022-11-20T10:41:54.772Z,87.26
2022-11-20T10:45:12.478Z,87.20
2022-11-20T10:48:22.541Z,87.24
2022-11-20T10:51:38.148Z,87.26
2022-11-20T10:54:52.711Z,87.27
2022-11-20T10:58:21.179Z,87.71
2022-11-20T11:01:27.580Z,87.75
2022-11-20T11:04:29.457Z,87.83
2022-11-20T11:07:40.561Z,88.22
2022-11-20T11:10:57.428Z,88.19
2022-11-20T11:14:14.400Z,88.16
2022-11-20T11:17:28.346Z,88.42
2022-11-20T11:20:30.831Z,88.09
2022-11-20T11:23:37.539Z,88.40
2022-11-20T11:26:39.635Z,88.37
2022-11-20T11:29:41.577Z,88.17
2022-11-20T11:32:43.789Z,88.63
2022-11-20T11:35:51.381Z,88.00
2022-11-20T11:38:54.754Z,88.18
2022-11-20T11:41:56.832Z,88.36
2022-11-20T11:45:07.519Z,88.42
2022-11-20T11:48:10.576Z,88.57
2022-11-20T11:51:12.396Z,88.36
2022-11-20T11:54:29.671Z,88.69
2022-11-20T11:57:57.544Z,88.67
2022-11-20T12:01:39.986Z,88.57
2022-11-20T12:04:49.874Z,88.59
2022-11-20T12:08:14.530Z,88.28
2022-11-20T12:11:32.068Z,88.41
2022-11-20T12:14:40.391Z,88.81
2022-11-20T12:17:42.248Z,88.59
2022-11-20T12:20:55.083Z,88.54
2022-11-20T12:24:21.733Z,88.51
2022-11-20T12:27:42.068Z,88.68
2022-11-20T12:31:06.780Z,88.55
2022-11-20T12:34:46.680Z,88.65
2022-11-20T12:38:04.311Z,88.54
2022-11-20T12:41:36.317Z,88.44
2022-11-20T12:45:11.837Z,88.75
2022-11-20T12:48:46.490Z,88.58
2022-11-20T12:52:30.444Z,88.60
2022-11-20T12:55:55.861Z,88.63
2022-11-20T12:59:22.799Z,88.81
2022-11-20T13:02:37.917Z,88.89
2022-11-20T13:05:45.824Z,88.71
2022-11-20T13:08:55.650Z,88.79
2022-11-20T13:12:15.174Z,88.61
2022-11-20T13:15:51.715Z,88.49
2022-11-20T13:18:53.865Z,88.99
2022-11-20T13:21:55.921Z,88.78
2022-11-20T13:24:57.822Z,88.84
2022-11-20T13:28:10.387Z,88.76
2022-11-20T13:31:32.447Z,88.76
2022-11-20T13:34:36.416Z,89.12
2022-11-20T13:37:39.234Z,88.93
2022-11-20T13:41:22.086Z,88.95
2022-11-20T13:44:40.260Z,88.85
2022-11-20T13:47:49.798Z,89.10
2022-11-20T13:51:19.088Z,88.99
2022-11-20T13:54:44.866Z,89.23
2022-11-20T13:58:01.160Z,89.12
2022-11-20T14:01:16.179Z,89.09
2022-11-20T14:04:24.249Z,88.85
2022-11-20T14:07:37.180Z,89.20
2022-11-20T14:10:40.568Z,89.30
2022-11-20T14:13:55.133Z,89.25
2022-11-20T14:17:08.811Z,89.25
2022-11-20T14:20:16.470Z,89.33
2022-11-20T14:23:29.976Z,89.52
2022-11-20T14:26:32.749Z,89.51
2022-11-20T14:29:37.440Z,89.71
2022-11-20T14:32:39.403Z,89.92
2022-11-20T14:35:50.538Z,89.84
2022-11-20T14:38:53.757Z,90.15
2022-11-20T14:41:56.023Z,90.13
2022-11-20T14:45:00.321Z,90.39
2022-11-20T14:48:02.282Z,90.79
2022-11-20T14:51:04.184Z,90.63
2022-11-20T14:54:17.862Z,90.66
2022-11-20T14:57:27.324Z,90.74
2022-11-20T15:00:30.464Z,90.53
2022-11-20T15:03:37.824Z,91.14
2022-11-20T15:06:51.889Z,91.18
2022-11-20T15:10:08.993Z,91.36
2022-11-20T15:13:17.163Z,91.56
2022-11-20T15:16:22.331Z,91.45
2022-11-20T15:19:28.027Z,91.72
2022-11-20T15:22:29.854Z,91.57
2022-11-20T15:25:31.861Z,91.52
2022-11-20T15:28:46.228Z,91.66
2022-11-20T15:31:48.073Z,91.94
2022-11-20T15:34:49.916Z,91.75
2022-11-20T15:37:51.799Z,92.08
2022-11-20T15:40:53.659Z,92.35
2022-11-20T15:43:55.470Z,92.57
2022-11-20T15:46:57.424Z,92.41
2022-11-20T15:49:59.512Z,92.47
2022-11-20T15:53:02.724Z,92.44
2022-11-20T15:56:05.291Z,92.65
2022-11-20T15:59:07.319Z,92.84
2022-11-20T16:02:18.672Z,92.89
2022-11-20T16:05:24.069Z,92.93
2022-11-20T16:08:26.116Z,93.19
2022-11-20T16:11:27.992Z,93.45
2022-11-20T16:14:48.343Z,93.26
2022-11-20T16:17:50.278Z,93.34
2022-11-20T16:20:54.643Z,93.29
2022-11-20T16:23:57.944Z,93.38
2022-11-20T16:26:59.886Z,93.52
2022-11-20T16:30:01.809Z,93.33
2022-11-20T16:33:04.502Z,93.38
2022-11-20T16:36:11.224Z,93.53
2022-11-20T16:39:13.515Z,93.46
2022-11-20T16:42:15.355Z,93.51
2022-11-20T16:45:24.735Z,93.61
2022-11-20T16:48:28.056Z,93.78
2022-11-20T16:51:31.330Z,93.66
2022-11-20T16:54:33.175Z,93.59
2022-11-20T16:57:35.248Z,93.61
2022-11-20T17:00:38.295Z,93.74
2022-11-20T17:03:42.042Z,93.76
2022-11-20T17:06:44.658Z,93.87
2022-11-20T17:09:46.510Z,94.02
2022-11-20T17:12:48.461Z,93.98
2022-11-20T17:15:50.396Z,93.94
2022-11-20T17:18:58.172Z,93.86
2022-11-20T17:22:03.102Z,94.17
2022-11-20T17:25:05.309Z,94.06
2022-11-20T17:28:07.148Z,94.09
2022-11-20T17:31:11.656Z,93.71
2022-11-20T17:34:15.456Z,93.92
2022-11-20T17:37:17.488Z,94.15
2022-11-20T17:40:23.206Z,94.27
2022-11-20T17:43:34.330Z,93.98
2022-11-20T17:46:37.592Z,93.72
2022-11-20T17:49:39.408Z,93.85
2022-11-20T17:52:41.339Z,94.15
2022-11-20T17:56:01.708Z,93.93
2022-11-20T17:59:13.748Z,93.87
2022-11-20T18:02:15.716Z,94.13
2022-11-20T18:05:17.671Z,93.87
2022-11-20T18:08:19.524Z,94.09
2022-11-20T18:11:30.303Z,94.39
2022-11-20T18:14:32.738Z,94.15
2022-11-20T18:17:35.382Z,94.27
2022-11-20T18:20:39.964Z,94.48
2022-11-20T18:23:42.132Z,94.41
2022-11-20T18:26:44.723Z,94.87
2022-11-20T18:29:53.703Z,94.89
2022-11-20T18:32:55.814Z,94.79
2022-11-20T18:35:57.671Z,95.16
2022-11-20T18:39:01.746Z,95.12
2022-11-20T18:42:22.461Z,95.15
2022-11-20T18:45:24.303Z,95.28
2022-11-20T18:48:26.149Z,95.36
2022-11-20T18:51:28.026Z,95.40
2022-11-20T18:54:29.897Z,95.41
2022-11-20T18:57:32.244Z,95.61
2022-11-20T19:00:34.128Z,95.67
2022-11-20T19:03:35.984Z,95.49
2022-11-20T19:06:39.664Z,95.60
2022-11-20T19:09:42.746Z,95.87
2022-11-20T19:12:44.643Z,95.56
2022-11-20T19:15:47.949Z,95.75
2022-11-20T19:18:50.311Z,95.58
2022-11-20T19:21:52.986Z,95.58
2022-11-20T19:24:54.882Z,95.49
2022-11-20T19:27:56.834Z,95.70
2022-11-20T19:31:10.034Z,95.64
2022-11-20T19:34:12.215Z,95.76
2022-11-20T19:37:14.112Z,95.85
2022-11-20T19:40:15.985Z,95.83
2022-11-20T19:43:17.867Z,96.24
2022-11-20T19:46:21.737Z,96.32
2022-11-20T19:49:23.735Z,96.27
2022-11-20T19:52:25.748Z,96.32
2022-11-20T19:55:27.600Z,96.02
2022-11-20T19:58:29.799Z,96.14
2022-11-20T20:01:32.156Z,96.59
2022-11-20T20:04:34.144Z,96.19
2022-11-20T20:07:36.081Z,96.43
2022-11-20T20:10:38.328Z,96.15
2022-11-20T20:13:40.633Z,96.22
2022-11-20T20:16:42.821Z,96.21
2022-11-20T20:19:44.714Z,95.97
2022-11-20T20:22:46.712Z,96.00
2022-11-20T20:25:49.139Z,95.89
2022-11-20T20:28:51.590Z,95.88
2022-11-20T20:31:53.443Z,95.98
2022-11-20T20:34:55.290Z,95.93
2022-11-20T20:37:57.238Z,95.79
2022-11-20T20:40:59.764Z,95.99
2022-11-20T20:44:20.531Z,95.95
2022-11-20T20:47:22.466Z,95.88
2022-11-20T20:50:24.361Z,95.82
2022-11-20T20:53:27.518Z,95.76
2022-11-20T20:56:29.355Z,95.67
2022-11-20T20:59:31.224Z,95.71
2022-11-20T21:02:33.199Z,96.10
2022-11-20T21:05:35.059Z,96.00
2022-11-20T21:08:40.165Z,95.58
2022-11-20T21:11:42.719Z,95.70
2022-11-20T21:14:44.573Z,95.68
2022-11-20T21:17:46.452Z,95.70
2022-11-20T21:21:06.906Z,95.67
2022-11-20T21:24:08.924Z,95.57
2022-11-20T21:27:10.866Z,95.75
2022-11-20T21:30:13.202Z,95.61
2022-11-20T21:33:15.060Z,95.60
2022-11-20T21:36:20.399Z,95.65
2022-11-20T21:39:22.488Z,95.68
2022-11-20T21:42:24.426Z,95.74
2022-11-20T21:45:26.249Z,95.77
2022-11-20T21:48:31.968Z,95.87
2022-11-20T21:51:34.040Z,95.66
2022-11-20T21:54:36.303Z,95.87
2022-11-20T21:57:38.187Z,95.59
2022-11-20T22:00:40.061Z,95.92
2022-11-20T22:03:42.759Z,96.13
2022-11-20T22:06:44.667Z,95.96
2022-11-20T22:09:46.576Z,95.77
2022-11-20T22:12:48.495Z,96.13
2022-11-20T22:16:04.610Z,96.05
2022-11-20T22:19:07.099Z,96.00
2022-11-20T22:22:08.992Z,96.20
2022-11-20T22:25:10.839Z,96.37
2022-11-20T22:28:12.770Z,96.20
2022-11-20T22:31:15.241Z,96.32
2022-11-20T22:34:17.258Z,96.47
2022-11-20T22:37:19.129Z,96.53
2022-11-20T22:40:21.042Z,96.64
2022-11-20T22:43:22.868Z,96.53
2022-11-20T22:46:27.060Z,96.71
2022-11-20T22:49:29.128Z,96.87
2022-11-20T22:52:30.960Z,97.13
2022-11-20T22:55:34.166Z,96.63
2022-11-20T22:58:37.648Z,96.93
2022-11-20T23:01:39.577Z,96.84
2022-11-20T23:04:41.457Z,96.90
2022-11-20T23:07:44.009Z,96.86
2022-11-20T23:10:45.967Z,96.97
2022-11-20T23:13:48.120Z,96.89
2022-11-20T23:16:50.221Z,97.58
2022-11-20T23:19:52.139Z,96.93
2022-11-20T23:22:54.001Z,96.97
2022-11-20T23:25:55.832Z,96.95
2022-11-20T23:28:59.088Z,97.17
2022-11-20T23:32:01.035Z,97.22
2022-11-20T23:35:02.917Z,96.92
2022-11-20T23:38:04.849Z,96.72
2022-11-20T23:41:07.099Z,96.67
2022-11-20T23:44:09.147Z,96.62
2022-11-20T23:47:11.056Z,96.62
2022-11-20T23:50:12.995Z,96.80
2022-11-20T23:53:15.309Z,96.67
2022-11-20T23:56:17.223Z,96.47
2022-11-20T23:59:19.090Z,96.13
